LESU Airport Information

Runway Information
Runway 04 Length 4396 ft width 98 ft
Elevation 0 ft Threshold 0 ft Heading 39
Runway 22 Length 4396 ft Width 98 ft
Elevation 0 ft Threshold 0 ft Heading 219
Airport Frequencies
Airport Navaids
Type NDB Name Seo De Urgel Frequency 340 KHZ
Airport Weather Information & NOTAM
ADDS - METARS form results

(0800 UTC 16 December 2018)
Data provider http://aviationweather.gov/metar/data/
 
Forecast for: LESU (LA SEU , ES)
Text: TAF LESU 160200Z 1603/1703 VRB04KT 9999 SCT040 TX09/1613Z TN00/1606Z
Forecast period: 0300 UTC 16 December 2018 to 0300 UTC 17 December 2018
Forecast type: FROM: standard forecast or significant change
Winds: variable direction winds at 5 MPH (4 knots; 2.1 m/s)
Visibility: 6 or more miles 10+ km)
Ceiling: at least 12,000 feet AGL
Clouds: scattered clouds at 4000 feet AGL
Weather: no significant weather forecast for this period
Text: PROB30
Forecast period: 0300 to 0700 UTC 16 December 2018
Forecast type: TEMPORARY: The following changes expected for less than half the time period
Visibility: 1.86 miles (2.99 km)
Ceiling: unknown
Clouds: missing
Weather: BR  (mist)
Text: TEMPO 1603/1607 3000 BR
Forecast period: 0700 to 1700 UTC 16 December 2018
Forecast type: TEMPORARY: The following changes expected for less than half the time period
Visibility: 1.24 miles (2.00 km)
Ceiling: 800 feet AGL
Clouds: broken clouds at 800 feet AGL
broken clouds at 3000 feet AGL
Weather: BR RA  (mist, moderate rain)